Time;durP1;ratioP1;P1;durP2;ratioP2;P2;SDS_P1;SDS_P2;PMS_P1;PMS_P2;Temp;Humidity;BMP_temperature;BMP_pressure;BME280_temperature;BME280_humidity;BME280_pressure;Samples;Min_cycle;Max_cycle;Signal;HPM_P1;HPM_P2
2022/02/16 00:01:38;;;;;;;17.75;11.00;;;;;;;0.94;64.82;99726.23;1698769;84;21029;-37
2022/02/16 00:04:06;;;;;;;18.85;11.10;;;;;;;0.97;64.70;99726.98;1698816;84;21189;-38
2022/02/16 00:06:32;;;;;;;17.35;10.40;;;;;;;0.95;64.71;99711.81;1698686;84;21029;-38
2022/02/16 00:09:00;;;;;;;16.32;10.95;;;;;;;0.92;64.69;99715.03;1709858;83;20941;-38
2022/02/16 00:11:26;;;;;;;18.02;9.68;;;;;;;0.89;64.80;99714.28;1719025;83;20940;-37
2022/02/16 00:13:53;;;;;;;17.92;10.30;;;;;;;0.90;64.71;99710.55;1752598;81;20998;-37
2022/02/16 00:16:20;;;;;;;19.07;10.15;;;;;;;0.87;64.65;99706.55;1752618;81;21142;-37
2022/02/16 00:18:46;;;;;;;16.15;10.00;;;;;;;0.86;64.73;99703.66;1752361;81;20965;-37
2022/02/16 00:21:13;;;;;;;15.40;10.05;;;;;;;0.83;64.71;99705.55;1752405;81;21036;-37
2022/02/16 00:23:40;;;;;;;16.93;10.18;;;;;;;0.80;64.71;99703.46;1752439;81;21044;-37
2022/02/16 00:26:07;;;;;;;16.10;9.40;;;;;;;0.78;64.84;99696.27;1752528;81;21590;-37
2022/02/16 00:28:35;;;;;;;18.50;10.50;;;;;;;0.79;64.80;99695.73;1752580;81;21887;-38
2022/02/16 00:31:01;;;;;;;15.70;9.48;;;;;;;0.79;64.82;99701.06;1752544;81;20978;-37
2022/02/16 00:33:29;;;;;;;14.87;9.43;;;;;;;0.78;64.79;99700.81;1719043;83;20924;-37
2022/02/16 00:35:56;;;;;;;17.27;10.08;;;;;;;0.77;64.74;99694.70;1718819;83;21498;-37
2022/02/16 00:38:22;;;;;;;15.08;10.20;;;;;;;0.80;64.62;99695.45;1718995;83;21043;-37
2022/02/16 00:40:50;;;;;;;18.62;10.55;;;;;;;0.80;64.69;99694.66;1688885;85;21094;-38
2022/02/16 00:43:17;;;;;;;15.20;9.55;;;;;;;0.82;64.64;99693.84;1752570;81;20933;-38
2022/02/16 00:45:43;;;;;;;17.32;10.18;;;;;;;0.81;64.58;99692.25;1719110;83;20940;-38
2022/02/16 00:48:11;;;;;;;18.52;10.28;;;;;;;0.83;64.57;99692.73;1719177;83;20973;-38
2022/02/16 00:50:39;;;;;;;20.15;11.00;;;;;;;0.80;64.55;99686.65;1707224;83;21051;-38
2022/02/16 00:53:06;;;;;;;18.40;10.65;;;;;;;0.81;64.49;99687.70;1719057;83;21189;-37
2022/02/16 00:55:33;;;;;;;19.55;10.65;;;;;;;0.81;64.34;99686.91;1752341;81;21054;-38
2022/02/16 00:58:00;;;;;;;16.37;10.05;;;;;;;0.82;64.33;99685.84;1752705;81;21077;-38
2022/02/16 01:00:29;;;;;;;17.77;10.43;;;;;;;0.82;64.38;99682.59;1752493;81;21057;-37
2022/02/16 01:02:56;;;;;;;16.42;10.23;;;;;;;0.84;64.40;99680.98;1752529;81;20989;-37
2022/02/16 01:05:23;;;;;;;29.40;11.55;;;;;;;0.82;64.32;99678.59;1752474;81;21523;-37
2022/02/16 01:07:49;;;;;;;19.77;10.98;;;;;;;0.83;64.26;99682.06;1752623;81;21041;-38
2022/02/16 01:10:17;;;;;;;15.32;10.88;;;;;;;0.81;64.25;99676.23;1757677;81;21534;-37
2022/02/16 01:12:47;;;;;;;20.05;12.75;;;;;;;0.81;64.17;99672.23;1758092;81;21056;-37
2022/02/16 01:15:14;;;;;;;24.25;14.78;;;;;;;0.81;64.10;99675.70;1738789;81;21530;-37
2022/02/16 01:17:43;;;;;;;21.55;12.43;;;;;;;0.79;64.00;99673.05;1758372;81;21045;-37
2022/02/16 01:22:57;;;;;;;16.20;10.53;;;;;;;0.73;64.04;99659.52;1829741;78;22598;-38
2022/02/16 01:25:25;;;;;;;16.82;10.65;;;;;;;0.60;64.32;99663.69;1802905;79;20939;-38
2022/02/16 01:27:52;;;;;;;20.45;11.60;;;;;;;0.60;64.22;99658.35;1803200;79;21863;-38
2022/02/16 01:30:20;;;;;;;17.87;11.12;;;;;;;0.64;64.13;99650.02;1803283;79;20979;-38
2022/02/16 01:32:51;;;;;;;18.20;11.05;;;;;;;0.65;64.02;99645.48;1802818;79;20955;-38
2022/02/16 01:35:19;;;;;;;17.20;10.45;;;;;;;0.65;63.98;99647.62;1802387;79;21193;-38
2022/02/16 01:37:48;;;;;;;16.48;10.75;;;;;;;0.67;63.88;99643.34;1803085;79;21013;-38
2022/02/16 01:40:15;;;;;;;15.43;9.98;;;;;;;0.67;63.84;99636.13;1803223;79;21107;-37
2022/02/16 01:42:43;;;;;;;20.52;11.70;;;;;;;0.65;63.84;99633.48;1802924;79;21509;-37
2022/02/16 01:45:12;;;;;;;19.50;12.18;;;;;;;0.62;63.82;99628.73;1746246;79;21597;-38
2022/02/16 01:47:39;;;;;;;19.05;12.45;;;;;;;0.60;63.79;99628.20;1802907;79;21015;-38
2022/02/16 01:50:08;;;;;;;20.25;11.88;;;;;;;0.57;63.79;99625.59;1790820;79;21036;-38
2022/02/16 01:52:35;;;;;;;20.70;12.00;;;;;;;0.50;63.88;99626.47;1771251;80;21122;-38
2022/02/16 01:55:02;;;;;;;17.85;10.78;;;;;;;0.46;64.09;99631.33;1771286;81;21025;-38
2022/02/16 01:57:31;;;;;;;11.45;7.67;;;;;;;0.44;64.17;99625.73;1771303;81;20997;-39
2022/02/16 01:59:59;;;;;;;18.60;10.50;;;;;;;0.46;64.20;99631.33;1772004;79;21000;-38
2022/02/16 02:02:46;;;;;;;18.77;10.45;;;;;;;0.44;64.23;99627.61;1771377;80;21012;-38
2022/02/16 02:05:14;;;;;;;15.72;10.13;;;;;;;0.43;64.31;99630.84;1771307;79;21946;-38
2022/02/16 02:07:41;;;;;;;14.53;9.75;;;;;;;0.44;64.41;99635.07;1771175;81;21027;-38
2022/02/16 02:10:09;;;;;;;18.17;10.55;;;;;;;0.44;64.39;99635.07;1771330;80;21013;-38
2022/02/16 02:12:46;;;;;;;18.05;10.72;;;;;;;0.44;64.40;99636.41;1771336;80;21567;-38
2022/02/16 02:15:14;;;;;;;17.40;10.40;;;;;;;0.47;64.51;99631.59;1771296;81;21015;-38
2022/02/16 02:17:42;;;;;;;21.75;11.28;;;;;;;0.49;64.54;99630.75;1773533;79;21129;-38
2022/02/16 02:20:24;;;;;;;20.08;11.40;;;;;;;0.50;64.64;99624.34;1771173;81;20961;-38
2022/02/16 02:22:52;;;;;;;16.12;10.23;;;;;;;0.50;64.70;99631.01;1762156;80;21484;-38
2022/02/16 02:25:20;;;;;;;18.60;10.23;;;;;;;0.48;65.06;99630.52;1760859;81;21034;-37
2022/02/16 02:27:47;;;;;;;17.48;10.75;;;;;;;0.49;65.24;99628.88;1760881;81;21084;-38
2022/02/16 02:30:14;;;;;;;14.70;9.83;;;;;;;0.53;65.27;99627.25;1761019;81;21492;-38
2022/02/16 02:32:43;;;;;;;18.32;10.55;;;;;;;0.61;65.22;99628.47;1760479;81;21081;-38
2022/02/16 02:35:10;;;;;;;15.93;10.03;;;;;;;0.66;65.17;99626.53;1760388;80;20974;-38
2022/02/16 02:37:38;;;;;;;16.12;10.48;;;;;;;0.69;65.13;99621.14;1760197;81;21239;-38
2022/02/16 02:40:07;;;;;;;16.10;10.63;;;;;;;0.70;65.02;99622.20;1786182;79;21015;-39
2022/02/16 02:42:38;;;;;;;14.75;9.45;;;;;;;0.69;65.01;99617.14;1785609;79;21488;-38
2022/02/16 02:45:07;;;;;;;16.77;9.85;;;;;;;0.73;64.94;99620.82;1759625;81;21031;-38
2022/02/16 02:47:35;;;;;;;13.18;7.80;;;;;;;0.72;64.75;99615.25;1760334;81;20977;-38
2022/02/16 02:50:05;;;;;;;16.02;9.95;;;;;;;0.70;64.67;99614.73;1760387;80;21010;-38
2022/02/16 02:52:32;;;;;;;16.87;10.13;;;;;;;0.68;64.70;99609.68;1760166;81;21053;-38
2022/02/16 02:54:59;;;;;;;15.88;9.03;;;;;;;0.68;64.42;99606.21;1760224;81;22155;-38
2022/02/16 02:57:26;;;;;;;18.07;10.55;;;;;;;0.65;64.45;99607.59;1760031;80;20934;-38
2022/02/16 02:59:53;;;;;;;18.25;10.72;;;;;;;0.64;64.30;99602.54;1754522;81;20922;-38
2022/02/16 03:02:20;;;;;;;15.58;10.00;;;;;;;0.60;64.22;99605.53;1760007;81;21041;-38
2022/02/16 03:04:46;;;;;;;16.62;10.20;;;;;;;0.54;64.30;99606.67;1760160;81;21124;-38
2022/02/16 03:07:13;;;;;;;16.60;10.08;;;;;;;0.52;64.27;99599.52;1760109;80;21089;-38
2022/02/16 03:09:40;;;;;;;16.93;9.95;;;;;;;0.47;64.36;99596.91;1760074;81;21488;-38
2022/02/16 03:12:08;;;;;;;14.83;9.90;;;;;;;0.48;64.41;99591.84;1760193;81;20966;-39
2022/02/16 03:14:37;;;;;;;15.10;9.68;;;;;;;0.42;64.98;99585.24;1760290;81;21769;-38
2022/02/16 03:17:04;;;;;;;17.50;10.45;;;;;;;0.41;65.61;99584.19;1760273;81;21006;-38
2022/02/16 03:19:31;;;;;;;18.05;11.15;;;;;;;0.41;66.34;99584.98;1760146;80;21803;-38
2022/02/16 03:21:57;;;;;;;15.65;10.30;;;;;;;0.43;66.85;99581.50;1763066;80;20969;-38
2022/02/16 03:24:25;;;;;;;20.40;11.55;;;;;;;0.43;67.23;99576.16;1768393;81;21020;-38
2022/02/16 03:26:52;;;;;;;19.02;10.88;;;;;;;0.48;67.59;99575.84;1768487;81;20922;-38
2022/02/16 03:29:20;;;;;;;19.80;11.70;;;;;;;0.52;68.04;99580.84;1769867;78;21025;-37
2022/02/16 03:31:49;;;;;;;17.67;11.60;;;;;;;0.57;68.25;99578.11;1769009;78;21952;-38
2022/02/16 03:34:17;;;;;;;20.92;11.55;;;;;;;0.60;68.39;99576.19;1768399;81;21032;-37
2022/02/16 03:36:45;;;;;;;19.55;12.03;;;;;;;0.63;68.60;99575.06;1768338;78;20949;-38
2022/02/16 03:39:11;;;;;;;21.87;12.43;;;;;;;0.65;68.81;99578.25;1768360;81;21053;-38
2022/02/16 03:41:39;;;;;;;19.32;12.10;;;;;;;0.71;68.98;99575.77;1768286;81;21006;-38
2022/02/16 03:44:08;;;;;;;20.32;12.53;;;;;;;0.76;69.12;99582.91;1768221;80;21913;-38
2022/02/16 03:46:38;;;;;;;21.45;13.95;;;;;;;0.79;69.27;99577.77;1768379;78;20937;-38
2022/02/16 03:49:05;;;;;;;22.82;12.58;;;;;;;0.85;69.39;99574.49;1768190;81;21068;-38
2022/02/16 03:51:33;;;;;;;22.05;13.60;;;;;;;0.95;69.41;99572.21;1798820;79;20938;-38
2022/02/16 03:54:02;;;;;;;24.50;13.58;;;;;;;0.99;69.47;99577.22;1800003;79;20973;-38
2022/02/16 03:56:29;;;;;;;24.15;14.03;;;;;;;1.02;69.59;99573.41;1799638;79;21142;-38
2022/02/16 03:58:56;;;;;;;23.62;14.00;;;;;;;1.04;69.66;99573.93;1799712;79;20926;-38
2022/02/16 04:01:23;;;;;;;24.52;14.93;;;;;;;1.05;69.83;99571.52;1799876;79;21563;-38
2022/02/16 04:03:49;;;;;;;25.02;14.65;;;;;;;1.10;69.90;99570.10;1799727;79;21001;-38
2022/02/16 04:06:18;;;;;;;21.87;13.68;;;;;;;1.15;69.98;99575.36;1799705;79;21001;-38
2022/02/16 04:08:45;;;;;;;25.65;14.53;;;;;;;1.23;69.84;99569.88;1799659;79;22317;-38
2022/02/16 04:11:12;;;;;;;26.05;16.20;;;;;;;1.31;69.80;99568.66;1799679;78;20941;-38
2022/02/16 04:13:41;;;;;;;26.45;14.70;;;;;;;1.34;69.79;99570.51;1799837;78;22234;-38
2022/02/16 04:16:09;;;;;;;31.95;16.82;;;;;;;1.35;69.88;99584.13;1799959;79;21009;-39
2022/02/16 04:18:36;;;;;;;26.00;15.58;;;;;;;1.33;69.89;99582.27;1799841;79;21033;-38
2022/02/16 04:21:03;;;;;;;27.98;15.83;;;;;;;1.34;70.05;99573.19;1800001;79;21143;-39
2022/02/16 04:23:31;;;;;;;23.57;15.45;;;;;;;1.35;70.02;99584.92;1790910;79;21030;-38
2022/02/16 04:25:59;;;;;;;27.52;15.43;;;;;;;1.34;70.04;99581.19;1791581;80;21001;-38
2022/02/16 04:28:26;;;;;;;23.22;15.28;;;;;;;1.35;70.11;99573.44;1791376;80;21033;-38
2022/02/16 04:30:53;;;;;;;24.63;15.68;;;;;;;1.39;70.10;99571.76;1791346;80;20969;-39
2022/02/16 04:33:20;;;;;;;27.65;16.90;;;;;;;1.38;70.15;99562.95;1791285;80;21167;-38
2022/02/16 04:35:47;;;;;;;26.42;15.85;;;;;;;1.39;70.18;99563.20;1791192;79;20949;-38
2022/02/16 04:38:16;;;;;;;31.10;17.45;;;;;;;1.37;70.14;99558.69;1791320;80;21049;-38
2022/02/16 04:40:43;;;;;;;;;;;;;;;1.37;70.20;99556.55;1794004;80;20981;-38
2022/02/16 04:43:10;;;;;;;25.82;16.02;;;;;;;1.41;70.15;99556.22;1791206;79;20192;-38
2022/02/16 04:45:37;;;;;;;24.87;16.05;;;;;;;1.35;70.22;99556.88;1791608;80;21091;-38
2022/02/16 04:48:05;;;;;;;26.42;16.97;;;;;;;1.47;70.15;99557.72;1791152;80;20958;-42
2022/02/16 04:50:34;;;;;;;28.07;16.40;;;;;;;1.56;69.99;99558.63;1791723;80;21021;-38
2022/02/16 04:53:02;;;;;;;26.27;17.12;;;;;;;1.61;69.93;99566.00;1791419;80;21037;-39
2022/02/16 04:55:33;;;;;;;29.72;18.23;;;;;;;1.65;69.80;99559.52;1791411;79;21500;-38
2022/02/16 04:58:01;;;;;;;28.02;16.93;;;;;;;1.67;69.75;99562.16;1790933;79;21205;-38
2022/02/16 05:00:29;;;;;;;27.93;18.17;;;;;;;1.63;69.65;99568.39;1791119;80;20914;-38
2022/02/16 05:03:07;;;;;;;27.02;17.30;;;;;;;1.63;69.70;99565.72;1789678;79;20958;-38
2022/02/16 05:05:35;;;;;;;29.65;17.95;;;;;;;1.64;69.68;99571.32;1791356;79;21520;-38
2022/02/16 05:08:02;;;;;;;31.73;18.37;;;;;;;1.65;69.66;99576.89;1791476;80;20950;-38
2022/02/16 05:10:29;;;;;;;28.60;18.27;;;;;;;1.67;69.67;99580.07;1791471;80;21830;-38
2022/02/16 05:12:58;;;;;;;23.92;16.25;;;;;;;1.71;69.71;99577.05;1791369;79;20997;-38
2022/02/16 05:15:25;;;;;;;29.25;16.45;;;;;;;1.79;69.52;99587.62;1790717;79;21539;-39
2022/02/16 05:17:52;;;;;;;26.45;17.02;;;;;;;1.88;69.26;99584.50;1774913;80;21015;-38
2022/02/16 05:20:21;;;;;;;29.92;17.07;;;;;;;1.92;69.18;99588.96;1775022;80;21033;-38
2022/02/16 05:22:48;;;;;;;28.65;17.52;;;;;;;1.94;69.11;99588.10;1788929;79;21120;-39
2022/02/16 05:25:14;;;;;;;29.10;17.92;;;;;;;1.93;68.99;99598.58;1808141;79;21017;-38
2022/02/16 05:27:41;;;;;;;24.32;15.65;;;;;;;1.86;69.01;99594.14;1807671;79;21011;-38
2022/02/16 05:30:10;;;;;;;28.02;16.55;;;;;;;1.81;69.11;99591.56;1778887;79;21518;-38
2022/02/16 05:32:38;;;;;;;26.48;17.20;;;;;;;1.85;69.20;99589.87;1808331;79;25081;-38
2022/02/16 05:35:09;;;;;;;25.37;16.52;;;;;;;1.94;69.23;99591.31;1808261;79;21315;-38
2022/02/16 05:37:35;;;;;;;;;;;;;;;1.97;69.21;99588.86;1810744;79;21059;-38
2022/02/16 05:40:06;;;;;;;26.00;16.75;;;;;;;1.98;69.13;99591.80;1802641;79;20143;-38
2022/02/16 05:42:36;;;;;;;26.12;16.97;;;;;;;1.91;69.40;99589.25;1808367;79;21064;-38
2022/02/16 05:45:04;;;;;;;;;;;;;;;1.94;69.31;99588.10;1810962;79;21064;-38
2022/02/16 05:47:32;;;;;;;28.30;16.35;;;;;;;1.95;69.23;99587.02;1808332;78;20220;-38
2022/02/16 05:49:59;;;;;;;25.57;16.17;;;;;;;1.94;69.32;99580.08;1808370;79;21487;-38
2022/02/16 05:52:26;;;;;;;28.73;17.32;;;;;;;2.00;69.24;99578.11;1808236;79;20993;-38
2022/02/16 05:54:53;;;;;;;33.78;17.70;;;;;;;2.05;69.26;99577.47;1808432;78;21507;-38
2022/02/16 05:57:19;;;;;;;28.95;17.52;;;;;;;2.05;69.14;99578.80;1808283;79;20981;-38
2022/02/16 05:59:46;;;;;;;31.65;18.40;;;;;;;2.08;69.17;99577.43;1808098;79;21145;-38
2022/02/16 06:02:13;;;;;;;28.75;17.80;;;;;;;2.07;69.10;99574.50;1808129;79;21029;-38
2022/02/16 06:04:41;;;;;;;28.73;15.50;;;;;;;2.11;69.20;99570.94;1808050;79;20945;-39
2022/02/16 06:07:08;;;;;;;28.17;17.07;;;;;;;2.22;69.03;99572.07;1808147;78;21004;-38
2022/02/16 06:09:35;;;;;;;27.27;16.70;;;;;;;2.33;68.63;99575.55;1808406;79;21080;-38
2022/02/16 06:12:03;;;;;;;30.40;17.95;;;;;;;2.32;68.52;99572.66;1808268;79;21137;-38
2022/02/16 06:14:33;;;;;;;28.98;18.07;;;;;;;2.27;68.68;99575.98;1808297;79;21071;-38
2022/02/16 06:17:03;;;;;;;33.20;19.12;;;;;;;2.26;68.77;99576.52;1807415;79;21487;-38
2022/02/16 06:19:30;;;;;;;33.50;19.12;;;;;;;2.27;68.74;99582.66;1808312;79;20957;-38
2022/02/16 06:21:57;;;;;;;34.43;17.90;;;;;;;2.25;68.70;99574.13;1808350;79;21075;-39
2022/02/16 06:24:24;;;;;;;30.15;17.07;;;;;;;2.21;68.81;99572.61;1808081;79;21139;-39
2022/02/16 06:26:50;;;;;;;29.90;18.25;;;;;;;2.27;68.79;99570.62;1808325;79;21354;-38
2022/02/16 06:29:17;;;;;;;30.85;18.77;;;;;;;2.28;68.74;99564.16;1808712;79;21519;-39
2022/02/16 06:31:46;;;;;;;32.95;19.55;;;;;;;2.26;68.84;99558.34;1806064;79;21515;-39
2022/02/16 06:34:14;;;;;;;32.05;19.65;;;;;;;2.21;68.95;99549.08;1808677;79;21059;-39
2022/02/16 06:36:41;;;;;;;35.38;19.10;;;;;;;2.15;69.07;99547.05;1808402;79;21119;-39
2022/02/16 06:39:08;;;;;;;29.65;18.85;;;;;;;2.14;69.21;99540.11;1808154;79;20945;-39
2022/02/16 06:41:36;;;;;;;29.77;18.42;;;;;;;2.15;69.00;99541.16;1808102;79;20957;-38
2022/02/16 06:44:04;;;;;;;33.02;19.73;;;;;;;2.18;68.59;99538.42;1808322;79;21056;-39
2022/02/16 06:46:32;;;;;;;29.42;19.07;;;;;;;2.16;68.64;99537.41;1808413;79;20993;-39
2022/02/16 06:48:59;;;;;;;34.38;20.20;;;;;;;2.13;68.59;99540.66;1808186;79;21125;-38
2022/02/16 06:51:27;;;;;;;31.52;18.92;;;;;;;2.12;68.67;99544.98;1808318;79;21060;-39
2022/02/16 06:53:58;;;;;;;33.88;20.40;;;;;;;2.14;68.75;99547.59;1808366;78;21025;-38
2022/02/16 06:56:26;;;;;;;30.32;19.50;;;;;;;2.16;68.75;99537.94;1808330;79;20984;-39
2022/02/16 06:59:07;;;;;;;35.70;20.23;;;;;;;2.22;68.81;99530.61;1781115;79;21590;-38
2022/02/16 07:01:36;;;;;;;32.83;19.57;;;;;;;2.26;68.61;99532.92;1808238;79;20978;-39
2022/02/16 07:04:04;;;;;;;31.10;17.98;;;;;;;2.27;68.53;99533.97;1808374;79;20977;-38
2022/02/16 07:06:34;;;;;;;30.95;18.77;;;;;;;2.34;68.45;99536.22;1808443;78;20937;-39
2022/02/16 07:09:03;;;;;;;32.73;18.93;;;;;;;2.37;68.17;99532.97;1808201;79;21013;-38
2022/02/16 07:11:32;;;;;;;29.60;19.37;;;;;;;2.37;67.93;99536.97;1808388;79;21044;-38
2022/02/16 07:14:03;;;;;;;35.58;20.75;;;;;;;2.32;67.87;99532.53;1808434;79;21550;-38
2022/02/16 07:16:30;;;;;;;36.10;20.80;;;;;;;2.28;68.08;99526.17;1808201;79;21000;-38
2022/02/16 07:18:58;;;;;;;30.23;19.02;;;;;;;2.29;68.26;99533.11;1808270;79;20997;-38
2022/02/16 07:21:26;;;;;;;28.07;18.65;;;;;;;2.32;68.02;99525.05;1808193;78;21024;-38
2022/02/16 07:23:56;;;;;;;28.83;18.87;;;;;;;2.38;68.04;99521.14;1797966;78;20993;-38
2022/02/16 07:26:23;;;;;;;32.38;18.82;;;;;;;2.46;67.91;99516.44;1791386;80;22275;-38
2022/02/16 07:28:52;;;;;;;28.90;17.90;;;;;;;2.48;67.97;99520.92;1791343;79;20957;-38
2022/02/16 07:31:19;;;;;;;28.90;18.80;;;;;;;2.47;67.81;99517.45;1791324;80;21004;-39
2022/02/16 07:33:46;;;;;;;28.83;18.27;;;;;;;2.43;67.66;99514.34;1791353;80;21026;-39
2022/02/16 07:36:13;;;;;;;30.15;17.37;;;;;;;2.35;67.75;99525.77;1791498;80;21038;-38
2022/02/16 07:38:41;;;;;;;31.85;17.62;;;;;;;2.27;67.89;99518.47;1791208;80;21127;-38
2022/02/16 07:41:08;;;;;;;30.45;18.17;;;;;;;2.24;68.18;99521.72;1791219;80;20942;-38
2022/02/16 07:43:37;;;;;;;29.12;18.70;;;;;;;2.22;68.10;99513.22;1790997;79;21000;-38
2022/02/16 07:46:23;;;;;;;31.97;18.45;;;;;;;2.16;68.56;99518.68;1791514;80;21008;-38
2022/02/16 07:48:50;;;;;;;28.10;17.20;;;;;;;2.10;68.81;99521.75;1791428;80;20978;-39
2022/02/16 07:51:18;;;;;;;27.35;18.05;;;;;;;2.07;68.89;99523.16;1790642;79;21131;-38
2022/02/16 07:54:03;;;;;;;25.30;17.37;;;;;;;2.07;68.92;99519.14;1789703;79;21515;-38
2022/02/16 07:56:34;;;;;;;27.55;16.52;;;;;;;2.11;69.08;99510.77;1791233;80;21484;-38
2022/02/16 07:58:58;;;;;;;32.38;18.15;;;;;;;2.21;69.08;99506.28;1791027;79;21662;-39
2022/02/16 08:01:26;;;;;;;29.90;17.82;;;;;;;2.26;69.08;99504.84;1791396;80;21448;-39
2022/02/16 08:04:15;;;;;;;27.65;17.87;;;;;;;2.31;69.04;99502.05;1791372;79;21119;-39
2022/02/16 08:06:21;;;;;;;32.13;18.62;;;;;;;2.31;68.83;99491.36;1787934;80;21029;-39
2022/02/16 08:08:48;;;;;;;32.58;18.75;;;;;;;2.32;68.95;99489.72;1791166;79;21064;-39
2022/02/16 08:11:15;;;;;;;30.32;18.62;;;;;;;2.39;68.94;99491.97;1791250;80;21065;-38
2022/02/16 08:13:42;;;;;;;29.45;19.30;;;;;;;2.44;68.71;99495.87;1791449;80;21476;-38
2022/02/16 08:16:13;;;;;;;29.95;18.62;;;;;;;2.43;68.49;99490.27;1791217;79;21564;-38
2022/02/16 08:18:42;;;;;;;32.53;18.45;;;;;;;2.40;68.48;99495.69;1789492;79;21013;-39
2022/02/16 08:21:08;;;;;;;27.05;19.07;;;;;;;2.42;68.58;99488.70;1791439;80;21511;-39
2022/02/16 08:23:42;;;;;;;29.80;19.20;;;;;;;2.41;68.78;99487.12;1793964;79;21045;-38
2022/02/16 08:26:09;;;;;;;33.23;20.62;;;;;;;2.35;68.88;99480.29;1799981;79;21017;-39
2022/02/16 08:28:39;;;;;;;28.92;21.00;;;;;;;2.35;69.18;99481.09;1793982;78;22047;-38
2022/02/16 08:31:05;;;;;;;34.50;20.97;;;;;;;2.38;69.15;99485.03;1799669;79;20914;-38
2022/02/16 08:33:35;;;;;;;31.87;19.07;;;;;;;2.39;69.08;99487.41;1797242;79;27485;-39
2022/02/16 08:36:05;;;;;;;29.85;18.65;;;;;;;2.43;69.11;99491.60;1799309;79;21072;-38
2022/02/16 08:38:33;;;;;;;31.82;19.85;;;;;;;2.48;68.92;99492.83;1799772;79;20946;-38
2022/02/16 08:41:00;;;;;;;31.87;19.80;;;;;;;2.56;68.92;99486.77;1799768;79;21121;-38
2022/02/16 08:43:27;;;;;;;32.60;21.55;;;;;;;2.59;68.86;99492.84;1799599;79;20973;-38
2022/02/16 08:45:55;;;;;;;33.60;21.65;;;;;;;2.59;68.73;99498.20;1799847;78;20945;-38
2022/02/16 08:48:23;;;;;;;34.60;22.15;;;;;;;2.53;68.79;99497.52;1799848;79;21025;-38
2022/02/16 08:50:53;;;;;;;34.35;21.05;;;;;;;2.51;68.95;99501.06;1799649;79;20994;-39
2022/02/16 08:53:22;;;;;;;33.73;20.30;;;;;;;2.51;69.00;99493.03;1799388;79;21119;-39
2022/02/16 08:55:50;;;;;;;28.62;19.50;;;;;;;2.53;68.98;99495.39;1799860;79;21072;-38
2022/02/16 08:58:16;;;;;;;29.05;19.27;;;;;;;2.56;68.63;99500.95;1799902;79;20977;-39
2022/02/16 09:00:45;;;;;;;39.18;21.73;;;;;;;2.56;68.69;99500.95;1799905;79;21061;-38
2022/02/16 09:03:12;;;;;;;33.53;21.80;;;;;;;2.57;68.86;99504.39;1800021;79;21767;-38
2022/02/16 09:05:38;;;;;;;36.83;21.87;;;;;;;2.56;68.96;99500.16;1799628;79;21129;-38
2022/02/16 09:08:06;;;;;;;33.15;19.77;;;;;;;2.58;69.02;99488.03;1799456;79;21515;-39
2022/02/16 09:10:33;;;;;;;31.55;19.15;;;;;;;2.56;68.94;99488.91;1799639;79;20938;-39
2022/02/16 09:13:02;;;;;;;31.30;18.12;;;;;;;2.56;68.58;99499.61;1799454;79;21028;-39
2022/02/16 09:15:29;;;;;;;26.65;16.90;;;;;;;2.57;68.55;99498.49;1799709;78;21072;-39
2022/02/16 09:17:56;;;;;;;26.70;17.25;;;;;;;2.61;68.45;99491.44;1799547;79;21503;-39
2022/02/16 09:20:24;;;;;;;24.12;16.42;;;;;;;2.55;68.66;99489.99;1799646;79;20964;-39
2022/02/16 09:22:51;;;;;;;25.68;16.82;;;;;;;2.49;68.86;99481.83;1799615;78;20997;-39
2022/02/16 09:25:19;;;;;;;32.33;18.52;;;;;;;2.44;69.04;99473.92;1791983;78;21061;-38
2022/02/16 09:27:48;;;;;;;31.97;19.05;;;;;;;2.39;69.28;99468.69;1791220;79;21582;-39
2022/02/16 09:30:16;;;;;;;29.65;17.85;;;;;;;2.36;69.45;99465.83;1791211;80;21800;-38
2022/02/16 09:32:43;;;;;;;31.57;18.73;;;;;;;2.39;69.60;99458.52;1791444;80;20946;-38
2022/02/16 09:35:11;;;;;;;34.50;18.65;;;;;;;2.45;69.65;99461.34;1791444;79;20957;-39
2022/02/16 09:37:38;;;;;;;33.83;20.17;;;;;;;2.45;69.71;99460.00;1791662;80;21080;-38
2022/02/16 09:40:07;;;;;;;35.15;19.40;;;;;;;2.46;69.73;99452.22;1791408;79;21025;-38
2022/02/16 09:42:36;;;;;;;32.45;20.37;;;;;;;2.48;69.80;99446.00;1791384;80;21145;-39
2022/02/16 09:45:06;;;;;;;34.38;19.48;;;;;;;2.50;69.79;99438.47;1744510;80;20994;-39
2022/02/16 09:47:34;;;;;;;29.75;17.57;;;;;;;2.54;69.70;99434.09;1791452;80;20985;-39
2022/02/16 09:50:03;;;;;;;32.30;19.32;;;;;;;2.61;69.71;99433.12;1791552;79;21017;-39
2022/02/16 09:52:29;;;;;;;33.40;19.23;;;;;;;2.70;69.43;99419.25;1769697;80;21500;-38
2022/02/16 09:54:56;;;;;;;33.85;19.20;;;;;;;2.72;69.54;99421.05;1791402;80;21118;-38
2022/02/16 09:57:23;;;;;;;32.28;19.23;;;;;;;2.81;69.54;99410.42;1791423;80;21666;-38
2022/02/16 09:59:49;;;;;;;31.27;19.32;;;;;;;2.90;69.05;99409.38;1791383;79;21112;-38
2022/02/16 10:02:17;;;;;;;32.95;19.60;;;;;;;2.95;68.90;99398.50;1791487;80;20931;-39
2022/02/16 10:04:56;;;;;;;30.52;18.55;;;;;;;2.94;68.67;99390.80;1791400;79;21041;-39
2022/02/16 10:07:30;;;;;;;33.70;20.07;;;;;;;2.97;68.75;99388.83;1791774;80;21073;-39
2022/02/16 10:10:23;;;;;;;32.03;19.05;;;;;;;2.98;68.54;99390.41;1791165;80;21864;-38
2022/02/16 10:12:56;;;;;;;33.60;20.08;;;;;;;3.01;68.55;99387.11;1786592;79;21519;-39
2022/02/16 10:15:40;;;;;;;34.48;20.10;;;;;;;3.05;68.65;99384.84;1791543;80;21021;-38
2022/02/16 10:18:14;;;;;;;35.65;20.68;;;;;;;3.04;68.34;99393.20;1772165;80;21021;-39
2022/02/16 10:20:43;;;;;;;34.63;20.23;;;;;;;2.93;68.37;99390.00;1791361;80;21824;-39
2022/02/16 10:23:11;;;;;;;31.17;20.00;;;;;;;2.86;68.60;99386.96;1791253;79;21072;-38
2022/02/16 10:25:38;;;;;;;37.20;21.27;;;;;;;2.82;68.89;99384.66;1798881;79;21031;-39
2022/02/16 10:28:19;;;;;;;34.40;20.85;;;;;;;2.82;69.01;99388.67;1768807;79;21069;-39
2022/02/16 10:31:03;;;;;;;32.05;20.77;;;;;;;2.85;69.03;99399.34;1799860;79;21037;-39
2022/02/16 10:33:38;;;;;;;36.38;22.32;;;;;;;2.78;69.18;99385.03;1799817;78;21145;-39
2022/02/16 10:36:20;;;;;;;40.05;23.87;;;;;;;2.71;69.45;99383.91;1799513;79;20949;-39
2022/02/16 10:39:02;;;;;;;38.15;23.57;;;;;;;2.65;69.69;99380.56;1799789;79;21004;-39
2022/02/16 10:41:52;;;;;;;33.20;20.95;;;;;;;2.59;69.97;99384.45;1799921;78;20965;-39
2022/02/16 10:44:31;;;;;;;32.63;20.55;;;;;;;2.59;70.20;99379.11;1799406;79;21001;-38
2022/02/16 10:47:04;;;;;;;29.75;19.85;;;;;;;2.67;70.20;99385.05;1800348;79;21065;-39
2022/02/16 10:49:38;;;;;;;33.67;20.75;;;;;;;2.75;70.16;99380.31;1799943;79;21006;-38
2022/02/16 10:52:15;;;;;;;33.67;20.88;;;;;;;2.75;70.17;99371.48;1799187;79;21590;-38
2022/02/16 10:55:02;;;;;;;31.95;21.45;;;;;;;2.75;70.15;99381.64;1799630;79;21002;-38
2022/02/16 10:57:29;;;;;;;33.83;21.60;;;;;;;2.73;70.03;99370.98;1771760;79;21036;-38
2022/02/16 10:59:57;;;;;;;33.50;21.27;;;;;;;2.71;70.13;99359.24;1799926;78;21102;-39
2022/02/16 11:02:25;;;;;;;30.27;20.32;;;;;;;2.74;70.21;99354.63;1799663;78;20978;-39
2022/02/16 11:04:53;;;;;;;31.82;20.08;;;;;;;2.86;69.98;99348.14;1799917;79;21021;-38
2022/02/16 11:07:22;;;;;;;32.58;20.65;;;;;;;2.94;69.79;99351.42;1799717;79;21520;-38
2022/02/16 11:09:52;;;;;;;32.35;21.68;;;;;;;2.96;69.76;99353.77;1799890;78;21041;-39
2022/02/16 11:12:19;;;;;;;34.92;22.25;;;;;;;2.96;69.64;99344.39;1797415;79;21812;-39
2022/02/16 11:14:46;;;;;;;34.27;22.17;;;;;;;2.94;69.28;99336.70;1799714;79;20993;-39
2022/02/16 11:17:12;;;;;;;36.23;22.67;;;;;;;2.90;69.35;99339.75;1799851;79;21605;-39
2022/02/16 11:19:42;;;;;;;36.80;22.02;;;;;;;2.91;69.33;99338.63;1788022;78;21019;-39
2022/02/16 11:22:14;;;;;;;33.70;21.82;;;;;;;2.90;69.37;99325.03;1775992;80;21028;-39
2022/02/16 11:24:49;;;;;;;33.23;21.20;;;;;;;3.00;69.48;99322.63;1786211;80;21556;-39
2022/02/16 11:27:38;;;;;;;32.33;21.00;;;;;;;2.78;69.30;99265.91;1794914;80;20959;-39
2022/02/16 11:30:09;;;;;;;43.58;24.92;;;;;;;3.19;69.17;99318.34;1763400;81;21549;-38
2022/02/16 11:32:42;;;;;;;37.83;25.02;;;;;;;3.17;69.07;99317.84;1763538;81;21062;-38
2022/02/16 11:35:26;;;;;;;33.78;22.58;;;;;;;3.13;69.06;99314.22;1763457;81;21106;-38
2022/02/16 11:38:11;;;;;;;33.30;21.40;;;;;;;3.08;69.22;99317.04;1763562;81;21109;-38